Terminal Aerodrome Forecast
Issued by NWS Caribou, ME

Home | Current Version | Previous Version | Text Only | Print | Product List | Glossary On
Versions: 1 2 3 4 5 6 7 8 9 10 11 12 13 14 15 16
000
FTUS41 KCAR 251248 AAB
TAFCAR
TAF AMD
KCAR 251248Z 2513/2612 18008KT P6SM SCT015
     FM251500 18009KT P6SM SCT020 BKN060
     FM252100 21007KT P6SM VCTS BKN050CB
     FM260000 21007KT 6SM -SHRA BKN050
     FM260200 29007KT P6SM BKN015
     FM260500 32012KT P6SM BKN015=

USA.gov is the U.S. government's official web portal to all federal, state and local government web resources and services.